Disclaimer

Please do not use the information listed here in-flight or in-navigation, as they are not provided to us by the airports but are provided by volunteers, so they might be outdated.

Search


Regions


Airport information page

No radio frequency information is available.

Airport informations:
Latitude: 26° 32' 23.38" S
Longitude: 018° 06' 41.21" E
Elevation: 3506 feet - 1069 meters
Operating hours: Remarks
Operating agency: Civil government, landing fees and diplomatic clearance may be required
Timezone: UTC+1(+2DT)
Fuel: Jet A1, without icing nhibitor.

100/130 MIL Spec, low lead, aviation gasoline (BLUE)

Runway information:
04/22 - 7598 x 148 feet< - >2316 x 45 meters
18/36 - 4705 x 98 feet< - >1434 x 30 meters

Recent METARs:
FYKT 130300Z AUTO 23005KT //// // ////// 21/M11 Q1019
FYKT 130300Z AUTO 23005KT //// // ////// 21/M11 Q1019
FYKT 130300Z AUTO 23005KT //// // ////// 21/M11 Q1019

Airport on the map: